sensor_id;sensor_type;location;lat;lon;timestamp;temperature;humidity
24730;DHT22;12832;52.392;13.066;2023-02-11T00:02:06;24.50;26.60
24730;DHT22;12832;52.392;13.066;2023-02-11T00:04:33;24.50;26.60
24730;DHT22;12832;52.392;13.066;2023-02-11T00:06:59;24.50;26.70
24730;DHT22;12832;52.392;13.066;2023-02-11T00:09:25;24.50;26.60
24730;DHT22;12832;52.392;13.066;2023-02-11T00:11:51;24.50;26.60
24730;DHT22;12832;52.392;13.066;2023-02-11T00:14:17;24.50;26.70
24730;DHT22;12832;52.392;13.066;2023-02-11T00:16:43;24.50;26.70
24730;DHT22;12832;52.392;13.066;2023-02-11T00:19:09;24.50;26.60
24730;DHT22;12832;52.392;13.066;2023-02-11T00:21:35;24.60;26.70
24730;DHT22;12832;52.392;13.066;2023-02-11T00:24:01;24.50;26.60
24730;DHT22;12832;52.392;13.066;2023-02-11T00:26:31;24.50;26.70
24730;DHT22;12832;52.392;13.066;2023-02-11T00:28:59;24.50;26.60
24730;DHT22;12832;52.392;13.066;2023-02-11T00:31:26;24.60;26.70
24730;DHT22;12832;52.392;13.066;2023-02-11T00:33:53;24.60;26.70
24730;DHT22;12832;52.392;13.066;2023-02-11T00:36:22;24.50;26.60
24730;DHT22;12832;52.392;13.066;2023-02-11T00:38:50;24.60;26.70
24730;DHT22;12832;52.392;13.066;2023-02-11T00:41:17;24.50;26.60
24730;DHT22;12832;52.392;13.066;2023-02-11T00:43:44;24.60;26.70
24730;DHT22;12832;52.392;13.066;2023-02-11T00:46:11;24.60;26.60
24730;DHT22;12832;52.392;13.066;2023-02-11T00:48:37;24.60;26.60
24730;DHT22;12832;52.392;13.066;2023-02-11T00:51:03;24.60;26.60
24730;DHT22;12832;52.392;13.066;2023-02-11T00:53:30;24.60;26.60
24730;DHT22;12832;52.392;13.066;2023-02-11T00:55:56;24.60;26.60
24730;DHT22;12832;52.392;13.066;2023-02-11T00:58:22;24.60;26.60
24730;DHT22;12832;52.392;13.066;2023-02-11T01:00:48;24.60;26.60
24730;DHT22;12832;52.392;13.066;2023-02-11T01:03:15;24.60;26.70
24730;DHT22;12832;52.392;13.066;2023-02-11T01:05:41;24.50;26.60
24730;DHT22;12832;52.392;13.066;2023-02-11T01:08:07;24.60;26.70
24730;DHT22;12832;52.392;13.066;2023-02-11T01:10:33;24.50;26.60
24730;DHT22;12832;52.392;13.066;2023-02-11T01:12:59;24.60;26.70
24730;DHT22;12832;52.392;13.066;2023-02-11T01:15:26;24.60;26.70
24730;DHT22;12832;52.392;13.066;2023-02-11T01:17:52;24.60;26.70
24730;DHT22;12832;52.392;13.066;2023-02-11T01:20:22;24.60;26.60
24730;DHT22;12832;52.392;13.066;2023-02-11T01:22:48;24.60;26.60
24730;DHT22;12832;52.392;13.066;2023-02-11T01:25:14;24.60;26.60
24730;DHT22;12832;52.392;13.066;2023-02-11T01:27:41;24.60;26.60
24730;DHT22;12832;52.392;13.066;2023-02-11T01:30:08;24.60;26.60
24730;DHT22;12832;52.392;13.066;2023-02-11T01:32:35;24.60;26.80
24730;DHT22;12832;52.392;13.066;2023-02-11T01:35:01;24.60;26.60
24730;DHT22;12832;52.392;13.066;2023-02-11T01:37:28;24.60;26.60
24730;DHT22;12832;52.392;13.066;2023-02-11T01:39:54;24.60;26.60
24730;DHT22;12832;52.392;13.066;2023-02-11T01:42:21;24.50;26.60
24730;DHT22;12832;52.392;13.066;2023-02-11T01:47:52;24.60;26.70
24730;DHT22;12832;52.392;13.066;2023-02-11T01:50:18;24.60;26.60
24730;DHT22;12832;52.392;13.066;2023-02-11T01:52:44;24.60;26.70
24730;DHT22;12832;52.392;13.066;2023-02-11T01:55:13;24.60;26.60
24730;DHT22;12832;52.392;13.066;2023-02-11T01:58:01;24.60;26.70
24730;DHT22;12832;52.392;13.066;2023-02-11T02:00:33;24.60;26.70
24730;DHT22;12832;52.392;13.066;2023-02-11T02:03:11;24.60;26.70
24730;DHT22;12832;52.392;13.066;2023-02-11T02:05:53;24.60;26.70
24730;DHT22;12832;52.392;13.066;2023-02-11T02:08:34;24.60;26.70
24730;DHT22;12832;52.392;13.066;2023-02-11T02:11:04;24.60;26.70
24730;DHT22;12832;52.392;13.066;2023-02-11T02:13:32;24.60;26.70
24730;DHT22;12832;52.392;13.066;2023-02-11T02:16:01;24.60;27.20
24730;DHT22;12832;52.392;13.066;2023-02-11T02:26:36;24.60;26.70
24730;DHT22;12832;52.392;13.066;2023-02-11T02:29:52;24.60;26.70
24730;DHT22;12832;52.392;13.066;2023-02-11T02:35:33;24.60;26.70
24730;DHT22;12832;52.392;13.066;2023-02-11T02:38:35;24.60;26.70
24730;DHT22;12832;52.392;13.066;2023-02-11T02:41:10;24.60;26.70
24730;DHT22;12832;52.392;13.066;2023-02-11T02:43:41;24.60;26.70
24730;DHT22;12832;52.392;13.066;2023-02-11T02:46:20;24.60;26.70
24730;DHT22;12832;52.392;13.066;2023-02-11T02:48:47;24.60;26.70
24730;DHT22;12832;52.392;13.066;2023-02-11T02:54:35;24.60;26.70
24730;DHT22;12832;52.392;13.066;2023-02-11T03:00:22;24.60;26.70
24730;DHT22;12832;52.392;13.066;2023-02-11T03:02:57;24.60;26.70
24730;DHT22;12832;52.392;13.066;2023-02-11T03:05:46;24.60;26.70
24730;DHT22;12832;52.392;13.066;2023-02-11T03:08:19;24.60;26.60
24730;DHT22;12832;52.392;13.066;2023-02-11T03:10:50;24.60;26.60
24730;DHT22;12832;52.392;13.066;2023-02-11T03:13:19;24.60;26.60
24730;DHT22;12832;52.392;13.066;2023-02-11T03:15:49;24.60;26.70
24730;DHT22;12832;52.392;13.066;2023-02-11T03:18:21;24.60;26.60
24730;DHT22;12832;52.392;13.066;2023-02-11T03:20:51;24.60;26.60
24730;DHT22;12832;52.392;13.066;2023-02-11T03:23:27;24.60;26.60
24730;DHT22;12832;52.392;13.066;2023-02-11T03:26:24;24.60;26.60
24730;DHT22;12832;52.392;13.066;2023-02-11T03:29:02;24.60;26.60
24730;DHT22;12832;52.392;13.066;2023-02-11T03:31:55;24.60;26.60
24730;DHT22;12832;52.392;13.066;2023-02-11T03:34:30;24.60;26.60
24730;DHT22;12832;52.392;13.066;2023-02-11T03:40:10;24.60;26.60
24730;DHT22;12832;52.392;13.066;2023-02-11T03:42:45;24.60;26.70
24730;DHT22;12832;52.392;13.066;2023-02-11T03:45:15;24.60;26.60
24730;DHT22;12832;52.392;13.066;2023-02-11T03:47:45;24.60;26.70
24730;DHT22;12832;52.392;13.066;2023-02-11T03:50:14;24.60;26.60
24730;DHT22;12832;52.392;13.066;2023-02-11T03:52:41;24.60;26.60
24730;DHT22;12832;52.392;13.066;2023-02-11T03:55:12;24.60;26.60
24730;DHT22;12832;52.392;13.066;2023-02-11T03:57:38;24.60;26.60
24730;DHT22;12832;52.392;13.066;2023-02-11T04:00:06;24.60;26.60
24730;DHT22;12832;52.392;13.066;2023-02-11T04:02:34;24.60;26.60
24730;DHT22;12832;52.392;13.066;2023-02-11T04:05:01;24.60;26.60
24730;DHT22;12832;52.392;13.066;2023-02-11T04:07:28;24.60;26.70
24730;DHT22;12832;52.392;13.066;2023-02-11T04:09:54;24.60;26.80
24730;DHT22;12832;52.392;13.066;2023-02-11T04:12:20;24.60;26.60
24730;DHT22;12832;52.392;13.066;2023-02-11T04:14:46;24.60;26.60
24730;DHT22;12832;52.392;13.066;2023-02-11T04:17:12;24.60;26.60
24730;DHT22;12832;52.392;13.066;2023-02-11T04:19:39;24.60;26.60
24730;DHT22;12832;52.392;13.066;2023-02-11T04:22:05;24.60;26.70
24730;DHT22;12832;52.392;13.066;2023-02-11T04:24:31;24.60;26.70
24730;DHT22;12832;52.392;13.066;2023-02-11T04:26:57;24.60;26.70
24730;DHT22;12832;52.392;13.066;2023-02-11T04:29:24;24.60;26.60
24730;DHT22;12832;52.392;13.066;2023-02-11T04:31:50;24.60;26.60
24730;DHT22;12832;52.392;13.066;2023-02-11T04:34:16;24.60;26.60
24730;DHT22;12832;52.392;13.066;2023-02-11T04:36:42;24.60;26.60
24730;DHT22;12832;52.392;13.066;2023-02-11T04:39:08;24.60;26.60
24730;DHT22;12832;52.392;13.066;2023-02-11T04:41:34;24.60;26.60
24730;DHT22;12832;52.392;13.066;2023-02-11T04:44:01;24.60;26.60
24730;DHT22;12832;52.392;13.066;2023-02-11T04:46:27;24.60;26.70
24730;DHT22;12832;52.392;13.066;2023-02-11T04:48:53;24.60;26.60
24730;DHT22;12832;52.392;13.066;2023-02-11T04:51:19;24.60;26.60
24730;DHT22;12832;52.392;13.066;2023-02-11T04:53:45;24.60;26.70
24730;DHT22;12832;52.392;13.066;2023-02-11T04:56:11;24.60;26.60
24730;DHT22;12832;52.392;13.066;2023-02-11T04:58:37;24.70;26.70
24730;DHT22;12832;52.392;13.066;2023-02-11T05:01:07;24.60;26.70
24730;DHT22;12832;52.392;13.066;2023-02-11T05:03:33;24.60;26.70
24730;DHT22;12832;52.392;13.066;2023-02-11T05:06:00;24.60;26.70
24730;DHT22;12832;52.392;13.066;2023-02-11T05:08:26;24.60;26.70
24730;DHT22;12832;52.392;13.066;2023-02-11T05:10:52;24.60;26.70
24730;DHT22;12832;52.392;13.066;2023-02-11T05:13:18;24.60;26.60
24730;DHT22;12832;52.392;13.066;2023-02-11T05:15:44;24.60;26.70
24730;DHT22;12832;52.392;13.066;2023-02-11T05:18:10;24.60;26.70
24730;DHT22;12832;52.392;13.066;2023-02-11T05:20:37;24.60;26.60
24730;DHT22;12832;52.392;13.066;2023-02-11T05:23:04;24.60;26.70
24730;DHT22;12832;52.392;13.066;2023-02-11T05:25:30;24.60;26.70
24730;DHT22;12832;52.392;13.066;2023-02-11T05:27:56;24.60;26.70
24730;DHT22;12832;52.392;13.066;2023-02-11T05:30:22;24.60;26.70
24730;DHT22;12832;52.392;13.066;2023-02-11T05:32:48;24.60;26.70
24730;DHT22;12832;52.392;13.066;2023-02-11T05:35:15;24.60;26.70
24730;DHT22;12832;52.392;13.066;2023-02-11T05:37:41;24.60;26.70
24730;DHT22;12832;52.392;13.066;2023-02-11T05:40:07;24.60;26.70
24730;DHT22;12832;52.392;13.066;2023-02-11T05:42:34;24.60;26.70
24730;DHT22;12832;52.392;13.066;2023-02-11T05:45:00;24.70;26.70
24730;DHT22;12832;52.392;13.066;2023-02-11T05:47:26;24.60;26.70
24730;DHT22;12832;52.392;13.066;2023-02-11T05:49:53;24.60;26.70
24730;DHT22;12832;52.392;13.066;2023-02-11T05:52:20;24.60;26.70
24730;DHT22;12832;52.392;13.066;2023-02-11T05:54:46;24.70;26.80
24730;DHT22;12832;52.392;13.066;2023-02-11T05:57:12;24.70;26.70
24730;DHT22;12832;52.392;13.066;2023-02-11T05:59:39;24.70;26.70
24730;DHT22;12832;52.392;13.066;2023-02-11T06:02:06;24.70;26.80
24730;DHT22;12832;52.392;13.066;2023-02-11T06:04:35;24.70;26.70
24730;DHT22;12832;52.392;13.066;2023-02-11T06:07:02;24.70;26.80
24730;DHT22;12832;52.392;13.066;2023-02-11T06:09:28;24.70;26.80
24730;DHT22;12832;52.392;13.066;2023-02-11T06:11:55;24.60;26.80
24730;DHT22;12832;52.392;13.066;2023-02-11T06:14:21;24.70;26.80
24730;DHT22;12832;52.392;13.066;2023-02-11T06:16:47;24.70;26.80
24730;DHT22;12832;52.392;13.066;2023-02-11T06:19:13;24.70;26.80
24730;DHT22;12832;52.392;13.066;2023-02-11T06:21:39;24.70;26.80
24730;DHT22;12832;52.392;13.066;2023-02-11T06:24:10;24.60;26.80
24730;DHT22;12832;52.392;13.066;2023-02-11T06:26:36;24.70;26.80
24730;DHT22;12832;52.392;13.066;2023-02-11T06:29:02;24.70;26.90
24730;DHT22;12832;52.392;13.066;2023-02-11T06:31:29;24.70;26.90
24730;DHT22;12832;52.392;13.066;2023-02-11T06:33:55;24.70;26.90
24730;DHT22;12832;52.392;13.066;2023-02-11T06:36:21;24.70;26.80
24730;DHT22;12832;52.392;13.066;2023-02-11T06:38:48;24.70;26.80
24730;DHT22;12832;52.392;13.066;2023-02-11T06:41:16;24.70;26.90
24730;DHT22;12832;52.392;13.066;2023-02-11T06:43:44;24.70;26.90
24730;DHT22;12832;52.392;13.066;2023-02-11T06:46:11;24.70;26.90
24730;DHT22;12832;52.392;13.066;2023-02-11T06:48:37;24.70;26.90
24730;DHT22;12832;52.392;13.066;2023-02-11T06:51:05;24.70;26.90
24730;DHT22;12832;52.392;13.066;2023-02-11T06:53:35;24.70;26.90
24730;DHT22;12832;52.392;13.066;2023-02-11T06:56:06;24.70;26.90
24730;DHT22;12832;52.392;13.066;2023-02-11T06:58:33;24.70;26.90
24730;DHT22;12832;52.392;13.066;2023-02-11T07:01:01;24.70;26.90
24730;DHT22;12832;52.392;13.066;2023-02-11T07:03:28;24.70;27.00
24730;DHT22;12832;52.392;13.066;2023-02-11T07:05:54;24.70;27.00
24730;DHT22;12832;52.392;13.066;2023-02-11T07:08:20;24.70;27.00
24730;DHT22;12832;52.392;13.066;2023-02-11T07:10:46;24.70;27.00
24730;DHT22;12832;52.392;13.066;2023-02-11T07:13:12;24.70;27.00
24730;DHT22;12832;52.392;13.066;2023-02-11T07:15:38;24.70;27.00
24730;DHT22;12832;52.392;13.066;2023-02-11T07:18:04;24.70;27.00
24730;DHT22;12832;52.392;13.066;2023-02-11T07:20:31;24.70;27.00
24730;DHT22;12832;52.392;13.066;2023-02-11T07:22:57;24.70;27.00
24730;DHT22;12832;52.392;13.066;2023-02-11T07:25:24;24.70;27.00
24730;DHT22;12832;52.392;13.066;2023-02-11T07:27:51;24.70;27.00
24730;DHT22;12832;52.392;13.066;2023-02-11T07:30:17;24.70;27.00
24730;DHT22;12832;52.392;13.066;2023-02-11T07:32:43;24.70;27.10
24730;DHT22;12832;52.392;13.066;2023-02-11T07:35:09;24.70;27.10
24730;DHT22;12832;52.392;13.066;2023-02-11T07:37:35;24.70;27.10
24730;DHT22;12832;52.392;13.066;2023-02-11T07:40:02;24.70;27.10
24730;DHT22;12832;52.392;13.066;2023-02-11T07:42:28;24.70;27.20
24730;DHT22;12832;52.392;13.066;2023-02-11T07:44:54;24.70;27.20
24730;DHT22;12832;52.392;13.066;2023-02-11T07:47:20;24.70;27.20
24730;DHT22;12832;52.392;13.066;2023-02-11T07:49:46;24.70;27.20
24730;DHT22;12832;52.392;13.066;2023-02-11T07:52:12;24.70;27.20
24730;DHT22;12832;52.392;13.066;2023-02-11T07:54:39;24.70;27.20
24730;DHT22;12832;52.392;13.066;2023-02-11T07:57:05;24.70;27.20
24730;DHT22;12832;52.392;13.066;2023-02-11T07:59:31;24.70;27.20
24730;DHT22;12832;52.392;13.066;2023-02-11T08:01:57;24.70;27.20
24730;DHT22;12832;52.392;13.066;2023-02-11T08:04:23;24.70;27.20
24730;DHT22;12832;52.392;13.066;2023-02-11T08:06:50;24.70;27.20
24730;DHT22;12832;52.392;13.066;2023-02-11T08:09:17;24.70;27.20
24730;DHT22;12832;52.392;13.066;2023-02-11T08:11:43;24.70;27.20
24730;DHT22;12832;52.392;13.066;2023-02-11T08:14:10;24.70;27.20
24730;DHT22;12832;52.392;13.066;2023-02-11T08:16:37;24.70;27.30
24730;DHT22;12832;52.392;13.066;2023-02-11T08:19:06;24.70;27.20
24730;DHT22;12832;52.392;13.066;2023-02-11T08:21:33;24.70;27.30
24730;DHT22;12832;52.392;13.066;2023-02-11T08:24:00;24.70;27.30
24730;DHT22;12832;52.392;13.066;2023-02-11T08:26:29;24.70;27.30
24730;DHT22;12832;52.392;13.066;2023-02-11T08:28:57;24.70;27.30
24730;DHT22;12832;52.392;13.066;2023-02-11T08:31:28;24.70;27.20
24730;DHT22;12832;52.392;13.066;2023-02-11T08:33:55;24.70;27.20
24730;DHT22;12832;52.392;13.066;2023-02-11T08:36:36;24.70;27.30
24730;DHT22;12832;52.392;13.066;2023-02-11T08:39:05;24.70;27.30
24730;DHT22;12832;52.392;13.066;2023-02-11T08:41:45;24.70;27.30
24730;DHT22;12832;52.392;13.066;2023-02-11T08:44:13;24.70;27.30
24730;DHT22;12832;52.392;13.066;2023-02-11T08:46:39;24.70;27.30
24730;DHT22;12832;52.392;13.066;2023-02-11T08:49:06;24.70;27.20
24730;DHT22;12832;52.392;13.066;2023-02-11T08:51:32;24.70;27.20
24730;DHT22;12832;52.392;13.066;2023-02-11T08:53:59;24.70;27.30
24730;DHT22;12832;52.392;13.066;2023-02-11T08:56:27;24.80;27.30
24730;DHT22;12832;52.392;13.066;2023-02-11T08:58:56;24.70;27.80
24730;DHT22;12832;52.392;13.066;2023-02-11T09:01:25;24.70;27.30
24730;DHT22;12832;52.392;13.066;2023-02-11T09:03:52;24.70;27.30
24730;DHT22;12832;52.392;13.066;2023-02-11T09:06:20;24.70;27.30
24730;DHT22;12832;52.392;13.066;2023-02-11T09:08:49;24.70;27.20
24730;DHT22;12832;52.392;13.066;2023-02-11T09:11:18;24.70;27.20
24730;DHT22;12832;52.392;13.066;2023-02-11T09:13:54;24.70;27.20
24730;DHT22;12832;52.392;13.066;2023-02-11T09:16:26;24.70;27.20
24730;DHT22;12832;52.392;13.066;2023-02-11T09:18:52;24.70;27.20
24730;DHT22;12832;52.392;13.066;2023-02-11T09:21:20;24.70;27.30
24730;DHT22;12832;52.392;13.066;2023-02-11T09:23:47;24.70;27.20
24730;DHT22;12832;52.392;13.066;2023-02-11T09:26:18;24.70;27.20
24730;DHT22;12832;52.392;13.066;2023-02-11T09:28:45;24.80;27.20
24730;DHT22;12832;52.392;13.066;2023-02-11T09:31:14;24.70;27.30
24730;DHT22;12832;52.392;13.066;2023-02-11T09:33:42;24.80;27.30
24730;DHT22;12832;52.392;13.066;2023-02-11T09:36:14;24.70;27.20
24730;DHT22;12832;52.392;13.066;2023-02-11T09:38:42;24.80;27.20
24730;DHT22;12832;52.392;13.066;2023-02-11T09:43:54;24.70;27.20
24730;DHT22;12832;52.392;13.066;2023-02-11T09:46:22;24.70;27.20
24730;DHT22;12832;52.392;13.066;2023-02-11T09:48:51;24.70;27.20
24730;DHT22;12832;52.392;13.066;2023-02-11T09:53:58;24.70;27.20
24730;DHT22;12832;52.392;13.066;2023-02-11T09:56:27;24.70;27.20
24730;DHT22;12832;52.392;13.066;2023-02-11T09:58:53;24.70;27.20
24730;DHT22;12832;52.392;13.066;2023-02-11T10:01:39;24.70;27.20
24730;DHT22;12832;52.392;13.066;2023-02-11T10:16:08;24.70;27.20
24730;DHT22;12832;52.392;13.066;2023-02-11T10:18:50;24.70;27.20
24730;DHT22;12832;52.392;13.066;2023-02-11T10:21:38;24.80;27.30
24730;DHT22;12832;52.392;13.066;2023-02-11T10:24:13;24.80;27.30
24730;DHT22;12832;52.392;13.066;2023-02-11T10:26:39;24.70;27.20
24730;DHT22;12832;52.392;13.066;2023-02-11T10:29:35;24.80;27.30
24730;DHT22;12832;52.392;13.066;2023-02-11T10:32:12;24.70;27.30
24730;DHT22;12832;52.392;13.066;2023-02-11T10:34:40;24.70;27.30
24730;DHT22;12832;52.392;13.066;2023-02-11T10:37:10;24.70;27.20
24730;DHT22;12832;52.392;13.066;2023-02-11T10:39:39;24.70;27.30
24730;DHT22;12832;52.392;13.066;2023-02-11T10:42:09;24.70;27.30
24730;DHT22;12832;52.392;13.066;2023-02-11T10:44:39;24.70;27.30
24730;DHT22;12832;52.392;13.066;2023-02-11T10:47:21;24.70;27.30
24730;DHT22;12832;52.392;13.066;2023-02-11T10:49:49;24.80;27.30
24730;DHT22;12832;52.392;13.066;2023-02-11T10:52:22;24.80;27.30
24730;DHT22;12832;52.392;13.066;2023-02-11T10:55:01;24.80;27.30
24730;DHT22;12832;52.392;13.066;2023-02-11T10:57:37;24.80;27.30
24730;DHT22;12832;52.392;13.066;2023-02-11T11:00:18;24.70;27.20
24730;DHT22;12832;52.392;13.066;2023-02-11T11:02:55;24.70;27.30
24730;DHT22;12832;52.392;13.066;2023-02-11T11:05:44;24.70;27.30
24730;DHT22;12832;52.392;13.066;2023-02-11T11:08:11;24.70;27.30
24730;DHT22;12832;52.392;13.066;2023-02-11T11:10:43;24.80;27.30
24730;DHT22;12832;52.392;13.066;2023-02-11T11:16:06;24.70;27.30
24730;DHT22;12832;52.392;13.066;2023-02-11T11:18:33;24.70;27.20
24730;DHT22;12832;52.392;13.066;2023-02-11T11:21:02;24.70;27.30
24730;DHT22;12832;52.392;13.066;2023-02-11T11:23:29;24.70;27.30
24730;DHT22;12832;52.392;13.066;2023-02-11T11:26:00;24.70;27.30
24730;DHT22;12832;52.392;13.066;2023-02-11T11:28:32;24.80;27.30
24730;DHT22;12832;52.392;13.066;2023-02-11T11:31:04;24.70;27.30
24730;DHT22;12832;52.392;13.066;2023-02-11T11:33:40;24.70;27.30
24730;DHT22;12832;52.392;13.066;2023-02-11T11:36:09;24.80;27.30
24730;DHT22;12832;52.392;13.066;2023-02-11T11:38:43;24.80;27.30
24730;DHT22;12832;52.392;13.066;2023-02-11T11:41:26;24.80;27.30
24730;DHT22;12832;52.392;13.066;2023-02-11T11:43:58;24.80;27.30
24730;DHT22;12832;52.392;13.066;2023-02-11T11:46:33;24.70;27.30
24730;DHT22;12832;52.392;13.066;2023-02-11T11:49:18;24.70;27.30
24730;DHT22;12832;52.392;13.066;2023-02-11T11:51:54;24.70;27.30
24730;DHT22;12832;52.392;13.066;2023-02-11T11:54:23;24.80;27.30
24730;DHT22;12832;52.392;13.066;2023-02-11T11:57:16;24.70;27.30
24730;DHT22;12832;52.392;13.066;2023-02-11T11:59:42;24.80;27.80
24730;DHT22;12832;52.392;13.066;2023-02-11T12:05:42;24.80;27.30
24730;DHT22;12832;52.392;13.066;2023-02-11T12:08:41;24.70;27.30
24730;DHT22;12832;52.392;13.066;2023-02-11T12:11:29;24.70;27.80
24730;DHT22;12832;52.392;13.066;2023-02-11T12:14:07;24.70;27.30
24730;DHT22;12832;52.392;13.066;2023-02-11T12:16:59;24.70;27.30
24730;DHT22;12832;52.392;13.066;2023-02-11T12:19:58;24.70;27.30
24730;DHT22;12832;52.392;13.066;2023-02-11T12:25:44;24.80;27.30
24730;DHT22;12832;52.392;13.066;2023-02-11T12:28:23;24.80;27.30
24730;DHT22;12832;52.392;13.066;2023-02-11T12:31:10;24.70;27.30
24730;DHT22;12832;52.392;13.066;2023-02-11T12:34:07;24.80;27.30
24730;DHT22;12832;52.392;13.066;2023-02-11T12:37:10;24.80;27.80
24730;DHT22;12832;52.392;13.066;2023-02-11T12:48:12;24.70;27.30
24730;DHT22;12832;52.392;13.066;2023-02-11T12:55:52;24.70;27.30
24730;DHT22;12832;52.392;13.066;2023-02-11T12:58:26;24.80;27.30
24730;DHT22;12832;52.392;13.066;2023-02-11T13:01:18;24.70;27.30
24730;DHT22;12832;52.392;13.066;2023-02-11T13:06:51;24.70;27.30
24730;DHT22;12832;52.392;13.066;2023-02-11T13:09:31;24.70;27.30
24730;DHT22;12832;52.392;13.066;2023-02-11T13:12:02;24.70;27.30
24730;DHT22;12832;52.392;13.066;2023-02-11T13:14:51;24.70;27.30
24730;DHT22;12832;52.392;13.066;2023-02-11T13:17:35;24.70;27.30
24730;DHT22;12832;52.392;13.066;2023-02-11T13:20:16;24.70;27.30
24730;DHT22;12832;52.392;13.066;2023-02-11T13:22:47;24.70;27.30
24730;DHT22;12832;52.392;13.066;2023-02-11T13:25:52;24.80;27.40
24730;DHT22;12832;52.392;13.066;2023-02-11T13:28:27;24.80;27.30
24730;DHT22;12832;52.392;13.066;2023-02-11T13:30:54;24.80;27.30
24730;DHT22;12832;52.392;13.066;2023-02-11T13:33:32;24.80;27.40
24730;DHT22;12832;52.392;13.066;2023-02-11T13:38:27;24.70;27.30
24730;DHT22;12832;52.392;13.066;2023-02-11T13:41:14;24.80;27.30
24730;DHT22;12832;52.392;13.066;2023-02-11T13:43:41;24.70;27.30
24730;DHT22;12832;52.392;13.066;2023-02-11T13:46:12;24.80;27.40
24730;DHT22;12832;52.392;13.066;2023-02-11T13:48:48;24.80;27.30
24730;DHT22;12832;52.392;13.066;2023-02-11T13:51:34;24.80;27.30
24730;DHT22;12832;52.392;13.066;2023-02-11T13:54:02;24.80;27.30
24730;DHT22;12832;52.392;13.066;2023-02-11T13:56:31;24.80;27.40
24730;DHT22;12832;52.392;13.066;2023-02-11T13:59:00;24.80;27.40
24730;DHT22;12832;52.392;13.066;2023-02-11T14:04:22;24.80;27.40
24730;DHT22;12832;52.392;13.066;2023-02-11T14:07:32;24.80;27.30
24730;DHT22;12832;52.392;13.066;2023-02-11T14:13:24;24.80;27.40
24730;DHT22;12832;52.392;13.066;2023-02-11T14:16:07;24.80;27.40
24730;DHT22;12832;52.392;13.066;2023-02-11T14:21:21;24.70;27.40
24730;DHT22;12832;52.392;13.066;2023-02-11T14:23:50;24.70;27.40
24730;DHT22;12832;52.392;13.066;2023-02-11T14:29:06;24.80;27.40
24730;DHT22;12832;52.392;13.066;2023-02-11T14:31:40;24.80;27.40
24730;DHT22;12832;52.392;13.066;2023-02-11T14:35:11;24.80;27.40
24730;DHT22;12832;52.392;13.066;2023-02-11T14:37:42;24.80;27.40
24730;DHT22;12832;52.392;13.066;2023-02-11T14:43:25;24.80;27.40
24730;DHT22;12832;52.392;13.066;2023-02-11T14:45:56;24.80;27.40
24730;DHT22;12832;52.392;13.066;2023-02-11T14:48:33;24.80;27.50
24730;DHT22;12832;52.392;13.066;2023-02-11T14:51:05;24.80;27.40
24730;DHT22;12832;52.392;13.066;2023-02-11T14:53:33;24.80;27.40
24730;DHT22;12832;52.392;13.066;2023-02-11T14:55:59;24.70;27.40
24730;DHT22;12832;52.392;13.066;2023-02-11T14:58:27;24.80;27.50
24730;DHT22;12832;52.392;13.066;2023-02-11T15:00:58;24.80;27.40
24730;DHT22;12832;52.392;13.066;2023-02-11T15:03:38;24.80;27.40
24730;DHT22;12832;52.392;13.066;2023-02-11T15:08:33;24.80;27.40
24730;DHT22;12832;52.392;13.066;2023-02-11T15:11:01;24.80;27.50
24730;DHT22;12832;52.392;13.066;2023-02-11T15:13:29;24.80;27.50
24730;DHT22;12832;52.392;13.066;2023-02-11T15:16:05;24.80;27.40
24730;DHT22;12832;52.392;13.066;2023-02-11T15:18:38;24.80;27.40
24730;DHT22;12832;52.392;13.066;2023-02-11T15:21:06;24.80;27.40
24730;DHT22;12832;52.392;13.066;2023-02-11T15:23:33;24.80;27.50
24730;DHT22;12832;52.392;13.066;2023-02-11T15:25:59;24.80;27.50
24730;DHT22;12832;52.392;13.066;2023-02-11T15:28:32;24.80;27.50
24730;DHT22;12832;52.392;13.066;2023-02-11T15:31:04;24.80;27.50
24730;DHT22;12832;52.392;13.066;2023-02-11T15:33:31;24.80;27.50
24730;DHT22;12832;52.392;13.066;2023-02-11T15:35:59;24.80;27.50
24730;DHT22;12832;52.392;13.066;2023-02-11T15:38:27;24.80;27.50
24730;DHT22;12832;52.392;13.066;2023-02-11T15:40:59;24.80;27.50
24730;DHT22;12832;52.392;13.066;2023-02-11T15:43:46;24.80;27.50
24730;DHT22;12832;52.392;13.066;2023-02-11T15:46:20;24.80;27.50
24730;DHT22;12832;52.392;13.066;2023-02-11T15:48:51;24.80;27.50
24730;DHT22;12832;52.392;13.066;2023-02-11T15:51:23;24.80;27.50
24730;DHT22;12832;52.392;13.066;2023-02-11T15:53:55;24.80;27.50
24730;DHT22;12832;52.392;13.066;2023-02-11T15:56:44;24.80;27.50
24730;DHT22;12832;52.392;13.066;2023-02-11T15:59:24;24.80;27.50
24730;DHT22;12832;52.392;13.066;2023-02-11T16:01:51;24.80;27.50
24730;DHT22;12832;52.392;13.066;2023-02-11T16:04:20;24.80;27.50
24730;DHT22;12832;52.392;13.066;2023-02-11T16:06:47;24.80;27.50
24730;DHT22;12832;52.392;13.066;2023-02-11T16:16:58;24.80;27.50
24730;DHT22;12832;52.392;13.066;2023-02-11T16:19:26;24.80;27.50
24730;DHT22;12832;52.392;13.066;2023-02-11T16:21:55;24.80;27.50
24730;DHT22;12832;52.392;13.066;2023-02-11T16:24:29;24.80;27.50
24730;DHT22;12832;52.392;13.066;2023-02-11T16:26:59;24.80;27.50
24730;DHT22;12832;52.392;13.066;2023-02-11T16:29:28;24.80;27.50
24730;DHT22;12832;52.392;13.066;2023-02-11T16:32:30;24.80;27.50
24730;DHT22;12832;52.392;13.066;2023-02-11T16:34:58;24.80;27.60
24730;DHT22;12832;52.392;13.066;2023-02-11T16:37:25;24.90;27.60
24730;DHT22;12832;52.392;13.066;2023-02-11T16:39:55;24.80;28.10
24730;DHT22;12832;52.392;13.066;2023-02-11T16:42:23;24.80;27.60
24730;DHT22;12832;52.392;13.066;2023-02-11T16:44:49;24.80;27.70
24730;DHT22;12832;52.392;13.066;2023-02-11T16:47:22;24.80;27.70
24730;DHT22;12832;52.392;13.066;2023-02-11T16:49:49;24.80;27.70
24730;DHT22;12832;52.392;13.066;2023-02-11T16:52:17;24.80;27.80
24730;DHT22;12832;52.392;13.066;2023-02-11T16:54:43;24.80;27.80
24730;DHT22;12832;52.392;13.066;2023-02-11T16:57:14;24.80;27.80
24730;DHT22;12832;52.392;13.066;2023-02-11T16:59:41;24.80;27.80
24730;DHT22;12832;52.392;13.066;2023-02-11T17:02:14;24.80;28.30
24730;DHT22;12832;52.392;13.066;2023-02-11T17:04:41;24.80;27.90
24730;DHT22;12832;52.392;13.066;2023-02-11T17:07:08;24.80;27.90
24730;DHT22;12832;52.392;13.066;2023-02-11T17:09:34;24.80;27.90
24730;DHT22;12832;52.392;13.066;2023-02-11T17:12:00;24.80;27.90
24730;DHT22;12832;52.392;13.066;2023-02-11T17:14:26;24.80;27.90